Terminal Aerodrome Forecast
Issued by NWS

Current Version | Previous Version | Text Only | Print | Product List | Glossary On
Versions: 1 2 3 4 5 6 7 8 9 10 11 12 13 14 15 16 17 18 19 20 21 22 23 24 25 26 27 28
000
FTUS44 KFWD 270209 AAB
TAFFTW
TAF AMD
KFTW 270209Z 2702/2724 17008KT P6SM VCTS OVC050CB
      TEMPO 2702/2704 -TSRA BKN025CB
     FM270400 13008KT 5SM BR OVC015
     FM270600 13009KT 2SM -DZ BR OVC008
     FM271200 17012KT 5SM BR OVC015
     FM271700 21014KT P6SM SCT015
     FM272200 21010KT P6SM SCT050=

USA.gov is the U.S. government's official web portal to all federal, state and local government web resources and services.